Time,TemperatureF,DewpointF,PressureIn,WindDirection,WindDirectionDegrees,WindSpeedMPH,WindSpeedGustMPH,Humidity,HourlyPrecipIn,Conditions,Clouds,dailyrainin,SolarRadiationWatts/m^2,SoftwareType,DateUTC
2013-06-06 00:05:00,52.6,47.3,30.17,NW,315,0.0,0.0,82,0.00,,,0.00,0000,Weather View 32 v70,2013-06-06 04:05:00,
2013-06-06 00:07:00,52.6,47.3,30.17,NW,315,0.0,0.0,82,0.00,,,0.00,0000,Weather View 32 v70,2013-06-06 04:07:00,
2013-06-06 00:10:00,52.7,47.7,30.17,NW,315,0.0,0.0,83,0.00,,,0.00,0000,Weather View 32 v70,2013-06-06 04:10:00,
2013-06-06 00:20:00,52.4,47.0,30.18,NW,315,0.0,0.0,82,0.00,,,0.00,0000,Weather View 32 v70,2013-06-06 04:20:00,
2013-06-06 00:25:00,52.3,46.6,30.17,NW,315,0.0,0.0,81,0.00,,,0.00,0008,Weather View 32 v70,2013-06-06 04:25:00,
2013-06-06 00:30:00,52.1,46.4,30.18,NW,315,0.0,0.0,81,0.00,,,0.00,0000,Weather View 32 v70,2013-06-06 04:30:00,
2013-06-06 00:35:00,51.9,46.3,30.17,NW,315,0.0,0.0,81,0.00,,,0.00,0008,Weather View 32 v70,2013-06-06 04:35:00,
2013-06-06 00:40:00,51.8,46.2,30.17,NW,315,0.0,0.0,81,0.00,,,0.00,0008,Weather View 32 v70,2013-06-06 04:40:00,
2013-06-06 00:45:00,51.7,46.4,30.17,NW,315,0.0,0.0,82,0.00,,,0.00,0008,Weather View 32 v70,2013-06-06 04:45:00,
2013-06-06 00:55:00,51.4,45.7,30.17,NW,315,0.0,0.0,81,0.00,,,0.00,0000,Weather View 32 v70,2013-06-06 04:55:00,
2013-06-06 01:05:00,50.9,45.3,30.16,NW,315,0.0,0.0,81,0.00,,,0.00,0008,Weather View 32 v70,2013-06-06 05:05:00,
2013-06-06 01:10:00,50.8,44.9,30.16,NW,315,0.0,0.0,80,0.00,,,0.00,0000,Weather View 32 v70,2013-06-06 05:10:00,
2013-06-06 01:15:00,50.8,45.2,30.16,NW,315,0.0,0.0,81,0.00,,,0.00,0008,Weather View 32 v70,2013-06-06 05:15:00,
2013-06-06 01:25:00,50.9,45.6,30.17,NW,315,0.0,0.0,82,0.00,,,0.00,0000,Weather View 32 v70,2013-06-06 05:25:00,
2013-06-06 01:30:00,50.9,45.6,30.16,NW,315,0.0,0.0,82,0.00,,,0.00,0000,Weather View 32 v70,2013-06-06 05:30:00,
2013-06-06 01:40:00,50.7,45.4,30.16,NW,315,0.0,0.0,82,0.00,,,0.00,0008,Weather View 32 v70,2013-06-06 05:40:00,
2013-06-06 01:47:00,50.8,45.5,30.17,NW,315,0.0,0.0,82,0.00,,,0.00,0000,Weather View 32 v70,2013-06-06 05:47:00,
2013-06-06 01:55:00,50.5,45.2,30.17,NW,315,0.0,0.0,82,0.00,,,0.00,0000,Weather View 32 v70,2013-06-06 05:55:00,
2013-06-06 02:00:00,50.4,45.1,30.17,NW,315,0.0,0.0,82,0.00,,,0.00,0008,Weather View 32 v70,2013-06-06 06:00:00,
2013-06-06 02:08:00,50.5,45.2,30.17,NW,315,0.0,0.0,82,0.00,,,0.00,0008,Weather View 32 v70,2013-06-06 06:08:00,
2013-06-06 02:15:00,50.4,44.8,30.17,NW,315,0.0,0.0,81,0.00,,,0.00,0000,Weather View 32 v70,2013-06-06 06:15:00,
2013-06-06 02:20:00,50.1,44.5,30.17,NW,315,0.0,0.0,81,0.00,,,0.00,0000,Weather View 32 v70,2013-06-06 06:20:00,
2013-06-06 02:30:00,49.7,44.4,30.17,NW,315,0.0,0.0,82,0.00,,,0.00,0000,Weather View 32 v70,2013-06-06 06:30:00,
2013-06-06 02:40:00,49.5,43.9,30.16,NW,315,0.0,0.0,81,0.00,,,0.00,0000,Weather View 32 v70,2013-06-06 06:40:00,
2013-06-06 02:50:00,49.2,43.6,30.16,NW,315,0.0,0.0,81,0.00,,,0.00,0000,Weather View 32 v70,2013-06-06 06:50:00,
2013-06-06 03:00:00,49.2,44.0,30.16,NW,315,0.0,0.0,82,0.00,,,0.00,0000,Weather View 32 v70,2013-06-06 07:00:00,
2013-06-06 03:05:00,49.2,43.6,30.16,NW,315,0.0,0.0,81,0.00,,,0.00,0008,Weather View 32 v70,2013-06-06 07:05:00,
2013-06-06 03:15:00,49.7,44.1,30.16,NW,315,0.0,0.0,81,0.00,,,0.00,0000,Weather View 32 v70,2013-06-06 07:15:00,
2013-06-06 03:25:00,49.5,43.9,30.16,NW,315,0.0,0.0,81,0.00,,,0.00,0000,Weather View 32 v70,2013-06-06 07:25:00,
2013-06-06 03:35:00,49.5,44.5,30.17,NW,315,0.0,0.0,83,0.00,,,0.00,0000,Weather View 32 v70,2013-06-06 07:35:00,
2013-06-06 03:45:00,49.2,44.3,30.16,NW,315,0.0,0.0,83,0.00,,,0.00,0000,Weather View 32 v70,2013-06-06 07:45:00,
2013-06-06 03:50:00,48.9,44.0,30.16,NW,315,0.0,0.0,83,0.00,,,0.00,0000,Weather View 32 v70,2013-06-06 07:50:00,
2013-06-06 03:55:00,48.8,43.8,30.17,NW,315,0.0,0.0,83,0.00,,,0.00,0008,Weather View 32 v70,2013-06-06 07:55:00,
2013-06-06 04:05:00,48.5,43.2,30.17,NW,315,0.0,0.0,82,0.00,,,0.00,0000,Weather View 32 v70,2013-06-06 08:05:00,
2013-06-06 04:10:00,48.5,43.5,30.17,NW,315,0.0,0.0,83,0.00,,,0.00,0000,Weather View 32 v70,2013-06-06 08:10:00,
2013-06-06 04:20:00,48.5,43.5,30.16,NW,315,0.0,0.0,83,0.00,,,0.00,0000,Weather View 32 v70,2013-06-06 08:20:00,
2013-06-06 04:25:00,48.2,43.0,30.17,NW,315,0.0,0.0,82,0.00,,,0.00,0000,Weather View 32 v70,2013-06-06 08:25:00,
2013-06-06 04:35:00,48.2,43.3,30.17,NW,315,0.0,0.0,83,0.00,,,0.00,0000,Weather View 32 v70,2013-06-06 08:35:00,
2013-06-06 04:40:00,48.1,42.9,30.17,NW,315,0.0,0.0,82,0.00,,,0.00,0000,Weather View 32 v70,2013-06-06 08:40:00,
2013-06-06 04:46:00,48.0,42.8,30.17,NW,315,0.0,0.0,82,0.00,,,0.00,0008,Weather View 32 v70,2013-06-06 08:46:00,
2013-06-06 04:55:00,48.3,43.1,30.17,NW,315,0.0,0.0,82,0.00,,,0.00,0008,Weather View 32 v70,2013-06-06 08:55:00,
2013-06-06 05:00:00,48.3,43.1,30.16,NW,315,0.0,0.0,82,0.00,,,0.00,0000,Weather View 32 v70,2013-06-06 09:00:00,
2013-06-06 05:05:00,48.5,43.2,30.16,NW,315,0.0,0.0,82,0.00,,,0.00,0000,Weather View 32 v70,2013-06-06 09:05:00,
2013-06-06 05:15:00,48.8,43.5,30.16,NW,315,0.0,0.0,82,0.00,,,0.00,0000,Weather View 32 v70,2013-06-06 09:15:00,
2013-06-06 05:25:00,49.1,44.2,30.17,NW,315,0.0,0.0,83,0.00,,,0.00,0008,Weather View 32 v70,2013-06-06 09:25:00,
2013-06-06 05:30:00,49.4,44.1,30.16,NW,315,0.0,0.0,82,0.00,,,0.00,0008,Weather View 32 v70,2013-06-06 09:30:00,
2013-06-06 05:40:00,50.0,45.1,30.18,NW,315,0.0,0.0,83,0.00,,,0.00,0008,Weather View 32 v70,2013-06-06 09:40:00,
2013-06-06 05:50:00,50.5,45.2,30.18,NW,315,0.0,0.0,82,0.00,,,0.00,0016,Weather View 32 v70,2013-06-06 09:50:00,
2013-06-06 05:55:00,50.7,45.7,30.18,NW,315,0.0,0.0,83,0.00,,,0.00,0032,Weather View 32 v70,2013-06-06 09:55:00,
2013-06-06 06:05:00,51.0,45.4,30.17,NW,315,0.0,0.0,81,0.00,,,0.00,0016,Weather View 32 v70,2013-06-06 10:05:00,
2013-06-06 06:10:00,51.2,45.5,30.17,NW,315,0.0,0.0,81,0.00,,,0.00,0048,Weather View 32 v70,2013-06-06 10:10:00,
2013-06-06 06:20:00,51.4,45.7,30.17,NW,315,0.0,0.0,81,0.00,,,0.00,0056,Weather View 32 v70,2013-06-06 10:20:00,
2013-06-06 06:25:00,51.7,46.7,30.18,NW,315,0.0,0.0,83,0.00,,,0.00,0056,Weather View 32 v70,2013-06-06 10:25:00,
2013-06-06 06:30:00,52.1,47.0,30.18,NW,315,0.0,0.0,83,0.00,,,0.00,0056,Weather View 32 v70,2013-06-06 10:30:00,
2013-06-06 06:40:00,52.5,47.5,30.17,NW,315,0.0,0.0,83,0.00,,,0.00,0048,Weather View 32 v70,2013-06-06 10:40:00,
2013-06-06 06:45:00,52.7,47.4,30.18,NW,315,0.0,0.0,82,0.00,,,0.00,0040,Weather View 32 v70,2013-06-06 10:45:00,
2013-06-06 06:55:00,53.2,47.8,30.17,NW,315,0.0,0.0,82,0.00,,,0.00,0056,Weather View 32 v70,2013-06-06 10:55:00,
2013-06-06 07:00:00,53.4,48.4,30.18,NW,315,0.0,0.0,83,0.00,,,0.00,0080,Weather View 32 v70,2013-06-06 11:00:00,
2013-06-06 07:05:00,53.6,48.2,30.18,NW,315,0.0,0.0,82,0.00,,,0.00,0120,Weather View 32 v70,2013-06-06 11:05:00,
2013-06-06 07:11:00,54.0,48.6,30.18,NW,315,0.0,0.0,82,0.00,,,0.00,0088,Weather View 32 v70,2013-06-06 11:11:00,
2013-06-06 07:20:00,54.8,49.3,30.18,NW,315,0.0,0.0,82,0.00,,,0.00,0088,Weather View 32 v70,2013-06-06 11:20:00,
2013-06-06 07:25:00,55.1,49.7,30.19,NW,315,0.0,0.0,82,0.00,,,0.00,0136,Weather View 32 v70,2013-06-06 11:25:00,
2013-06-06 07:30:00,55.5,50.4,30.18,NW,315,0.0,0.0,83,0.00,,,0.00,0160,Weather View 32 v70,2013-06-06 11:30:00,
2013-06-06 07:40:00,56.6,51.1,30.19,NW,315,0.0,0.0,82,0.00,,,0.00,0120,Weather View 32 v70,2013-06-06 11:40:00,
2013-06-06 07:45:00,56.9,51.8,30.19,WNW,293,0.0,0.0,83,0.00,,,0.00,0096,Weather View 32 v70,2013-06-06 11:45:00,
2013-06-06 07:50:00,57.3,52.5,30.19,NNW,338,0.0,0.0,84,0.00,,,0.00,0160,Weather View 32 v70,2013-06-06 11:50:00,
2013-06-06 08:00:00,57.9,52.8,30.19,NNE,23,0.0,0.0,83,0.00,,,0.00,0128,Weather View 32 v70,2013-06-06 12:00:00,
2013-06-06 08:05:00,58.2,53.4,30.19,West,270,0.0,0.0,84,0.00,,,0.00,0152,Weather View 32 v70,2013-06-06 12:05:00,
2013-06-06 08:12:00,58.6,53.4,30.19,NW,315,0.0,0.0,83,0.00,,,0.00,0224,Weather View 32 v70,2013-06-06 12:12:00,
2013-06-06 08:20:00,59.3,54.1,30.19,WNW,293,0.0,0.0,83,0.00,,,0.00,0344,Weather View 32 v70,2013-06-06 12:20:00,
2013-06-06 08:25:00,59.6,54.1,30.19,WNW,293,0.0,0.0,82,0.00,,,0.00,0304,Weather View 32 v70,2013-06-06 12:25:00,
2013-06-06 08:30:00,59.6,53.7,30.19,West,270,0.0,1.0,81,0.00,,,0.00,0248,Weather View 32 v70,2013-06-06 12:30:00,
2013-06-06 08:35:00,59.7,53.8,30.19,NNW,338,0.0,1.0,81,0.00,,,0.00,0248,Weather View 32 v70,2013-06-06 12:35:00,
2013-06-06 08:40:00,60.0,53.8,30.19,NNW,338,0.0,1.0,80,0.00,,,0.00,0184,Weather View 32 v70,2013-06-06 12:40:00,
2013-06-06 08:45:00,60.3,54.1,30.19,NNW,338,0.0,1.0,80,0.00,,,0.00,0224,Weather View 32 v70,2013-06-06 12:45:00,
2013-06-06 08:55:00,61.1,54.5,30.18,NNW,338,0.0,1.0,79,0.00,,,0.00,0400,Weather View 32 v70,2013-06-06 12:55:00,
2013-06-06 09:00:00,62.2,55.9,30.18,NW,315,0.0,1.0,80,0.00,,,0.00,0376,Weather View 32 v70,2013-06-06 13:00:00,
2013-06-06 09:05:00,63.5,56.5,30.18,NNW,338,0.0,1.0,78,0.00,,,0.00,0568,Weather View 32 v70,2013-06-06 13:05:00,
2013-06-06 09:10:00,63.9,55.8,30.18,NNW,338,0.0,1.0,75,0.00,,,0.00,0256,Weather View 32 v70,2013-06-06 13:10:00,
2013-06-06 09:20:00,64.5,56.0,30.17,East,90,0.0,1.0,74,0.00,,,0.00,0248,Weather View 32 v70,2013-06-06 13:20:00,
2013-06-06 09:25:00,64.7,55.4,30.17,North,0,0.0,1.0,72,0.00,,,0.00,0672,Weather View 32 v70,2013-06-06 13:25:00,
2013-06-06 09:35:00,66.8,57.4,30.17,ESE,113,0.0,2.0,72,0.00,,,0.00,0192,Weather View 32 v70,2013-06-06 13:35:00,
2013-06-06 09:40:00,67.8,57.2,30.17,NE,45,0.0,3.0,69,0.00,,,0.00,0752,Weather View 32 v70,2013-06-06 13:40:00,
2013-06-06 09:50:00,67.5,55.7,30.17,ENE,68,0.0,3.0,66,0.00,,,0.00,0544,Weather View 32 v70,2013-06-06 13:50:00,
2013-06-06 10:00:00,68.1,55.9,30.17,SSW,203,0.0,5.0,65,0.00,,,0.00,0688,Weather View 32 v70,2013-06-06 14:00:00,
2013-06-06 10:10:00,69.8,56.6,30.17,East,90,0.0,6.0,63,0.00,,,0.00,0240,Weather View 32 v70,2013-06-06 14:10:00,
2013-06-06 10:15:00,68.9,54.4,30.17,NE,45,0.0,6.0,60,0.00,,,0.00,0240,Weather View 32 v70,2013-06-06 14:15:00,
2013-06-06 10:20:00,68.4,52.0,30.17,NE,45,0.0,6.0,56,0.00,,,0.00,0376,Weather View 32 v70,2013-06-06 14:20:00,
2013-06-06 10:30:00,69.0,54.1,30.17,NNW,338,0.0,6.0,59,0.00,,,0.00,0896,Weather View 32 v70,2013-06-06 14:30:00,
2013-06-06 10:40:00,68.1,53.7,30.18,NNW,338,0.0,6.0,60,0.00,,,0.00,0544,Weather View 32 v70,2013-06-06 14:40:00,
2013-06-06 10:45:00,68.1,50.8,30.18,SE,135,0.0,6.0,54,0.00,,,0.00,0640,Weather View 32 v70,2013-06-06 14:45:00,
2013-06-06 10:50:00,68.8,52.9,30.18,North,0,0.0,6.0,57,0.00,,,0.00,0696,Weather View 32 v70,2013-06-06 14:50:00,
2013-06-06 11:00:00,69.8,53.4,30.17,NNE,23,0.0,6.0,56,0.00,,,0.00,0568,Weather View 32 v70,2013-06-06 15:00:00,
2013-06-06 11:10:00,69.6,51.1,30.18,ESE,113,0.0,6.0,52,0.00,,,0.00,0656,Weather View 32 v70,2013-06-06 15:10:00,
2013-06-06 11:15:00,69.5,50.5,30.18,East,90,0.0,3.0,51,0.00,,,0.00,0608,Weather View 32 v70,2013-06-06 15:15:00,
2013-06-06 11:25:00,70.6,52.1,30.17,SSW,203,1.0,4.0,52,0.00,,,0.00,0496,Weather View 32 v70,2013-06-06 15:25:00,
2013-06-06 11:30:00,70.5,52.0,30.17,ENE,68,0.0,5.0,52,0.00,,,0.00,0384,Weather View 32 v70,2013-06-06 15:30:00,
2013-06-06 11:40:00,70.4,50.8,30.16,East,90,0.0,6.0,50,0.00,,,0.00,0960,Weather View 32 v70,2013-06-06 15:40:00,
2013-06-06 11:50:00,71.3,53.2,30.16,NE,45,0.0,6.0,53,0.00,,,0.00,0768,Weather View 32 v70,2013-06-06 15:50:00,
2013-06-06 12:00:00,71.7,53.1,30.16,East,90,0.0,6.0,52,0.00,,,0.00,1040,Weather View 32 v70,2013-06-06 16:00:00,
2013-06-06 12:05:00,72.1,52.4,30.17,West,270,0.0,7.0,50,0.00,,,0.00,0800,Weather View 32 v70,2013-06-06 16:05:00,
2013-06-06 12:14:00,71.9,53.2,30.16,East,90,0.0,8.0,52,0.00,,,0.00,0936,Weather View 32 v70,2013-06-06 16:14:00,
2013-06-06 12:20:00,72.0,52.8,30.16,SE,135,3.0,8.0,51,0.00,,,0.00,0840,Weather View 32 v70,2013-06-06 16:20:00,
2013-06-06 12:30:00,72.6,52.3,30.16,ENE,68,0.0,14.0,49,0.00,,,0.00,0656,Weather View 32 v70,2013-06-06 16:30:00,
2013-06-06 12:35:00,72.1,53.9,30.16,SE,135,2.0,14.0,53,0.00,,,0.00,0792,Weather View 32 v70,2013-06-06 16:35:00,
2013-06-06 12:45:00,72.4,51.6,30.16,SSE,158,0.0,14.0,48,0.00,,,0.00,0992,Weather View 32 v70,2013-06-06 16:45:00,
2013-06-06 12:50:00,72.5,52.2,30.16,South,180,0.0,14.0,49,0.00,,,0.00,1008,Weather View 32 v70,2013-06-06 16:50:00,
2013-06-06 13:00:00,71.4,52.3,30.16,NE,45,0.0,14.0,51,0.00,,,0.00,0896,Weather View 32 v70,2013-06-06 17:00:00,
2013-06-06 13:10:00,70.8,50.7,30.16,ENE,68,0.0,21.0,49,0.00,,,0.00,0584,Weather View 32 v70,2013-06-06 17:10:00,
2013-06-06 13:15:00,69.8,51.3,30.16,NE,45,2.0,21.0,52,0.00,,,0.00,0472,Weather View 32 v70,2013-06-06 17:15:00,
2013-06-06 13:20:00,69.3,51.9,30.16,SE,135,0.0,21.0,54,0.00,,,0.00,0504,Weather View 32 v70,2013-06-06 17:20:00,
2013-06-06 13:30:00,68.5,50.1,30.15,ESE,113,0.0,21.0,52,0.00,,,0.00,0384,Weather View 32 v70,2013-06-06 17:30:00,
2013-06-06 13:40:00,67.9,50.1,30.15,ENE,68,0.0,21.0,53,0.00,,,0.00,0544,Weather View 32 v70,2013-06-06 17:40:00,
2013-06-06 13:45:00,67.8,51.5,30.15,SE,135,8.0,21.0,56,0.00,,,0.00,0584,Weather View 32 v70,2013-06-06 17:45:00,
2013-06-06 13:50:00,67.8,51.5,30.15,SE,135,0.0,21.0,56,0.00,,,0.00,0520,Weather View 32 v70,2013-06-06 17:50:00,
2013-06-06 14:00:00,68.0,50.2,30.15,NE,45,0.0,21.0,53,0.00,,,0.00,0480,Weather View 32 v70,2013-06-06 18:00:00,
2013-06-06 14:10:00,68.0,50.7,30.14,NE,45,3.0,21.0,54,0.00,,,0.00,0592,Weather View 32 v70,2013-06-06 18:10:00,
2013-06-06 14:15:00,68.0,51.7,30.14,ESE,113,0.0,12.0,56,0.00,,,0.00,0640,Weather View 32 v70,2013-06-06 18:15:00,
2013-06-06 14:25:00,68.3,52.9,30.14,East,90,0.0,13.0,58,0.00,,,0.00,0480,Weather View 32 v70,2013-06-06 18:25:00,
2013-06-06 14:30:00,67.9,51.1,30.14,ENE,68,2.0,13.0,55,0.00,,,0.00,0480,Weather View 32 v70,2013-06-06 18:30:00,
2013-06-06 14:35:00,67.6,52.7,30.14,ENE,68,0.0,13.0,59,0.00,,,0.00,0584,Weather View 32 v70,2013-06-06 18:35:00,
2013-06-06 14:45:00,68.1,54.1,30.14,East,90,2.0,13.0,61,0.00,,,0.00,0904,Weather View 32 v70,2013-06-06 18:45:00,
2013-06-06 14:50:00,68.0,54.0,30.14,NE,45,0.0,13.0,61,0.00,,,0.00,0368,Weather View 32 v70,2013-06-06 18:50:00,
2013-06-06 15:00:00,67.4,53.8,30.14,ESE,113,2.0,13.0,62,0.00,,,0.00,0504,Weather View 32 v70,2013-06-06 19:00:00,
2013-06-06 15:10:00,67.5,54.8,30.14,NE,45,1.0,13.0,64,0.00,,,0.00,0544,Weather View 32 v70,2013-06-06 19:10:00,
2013-06-06 15:15:00,67.7,54.6,30.14,ENE,68,0.0,15.0,63,0.00,,,0.00,0688,Weather View 32 v70,2013-06-06 19:15:00,
2013-06-06 15:20:00,68.3,54.7,30.13,ESE,113,1.0,15.0,62,0.00,,,0.00,0704,Weather View 32 v70,2013-06-06 19:20:00,
2013-06-06 15:25:00,68.0,53.1,30.13,SE,135,0.0,15.0,59,0.00,,,0.00,0408,Weather View 32 v70,2013-06-06 19:25:00,
2013-06-06 15:30:00,67.5,53.5,30.12,East,90,0.0,15.0,61,0.00,,,0.00,0376,Weather View 32 v70,2013-06-06 19:30:00,
2013-06-06 15:40:00,67.1,53.2,30.13,East,90,3.0,15.0,61,0.00,,,0.00,0392,Weather View 32 v70,2013-06-06 19:40:00,
2013-06-06 15:50:00,67.4,53.4,30.13,NNE,23,0.0,15.0,61,0.00,,,0.00,0352,Weather View 32 v70,2013-06-06 19:50:00,
2013-06-06 15:55:00,66.9,52.1,30.12,East,90,0.0,15.0,59,0.00,,,0.00,0464,Weather View 32 v70,2013-06-06 19:55:00,
2013-06-06 16:00:00,66.7,52.3,30.12,East,90,0.0,15.0,60,0.00,,,0.00,0352,Weather View 32 v70,2013-06-06 20:00:00,
2013-06-06 16:10:00,66.2,52.3,30.13,ENE,68,1.0,15.0,61,0.00,,,0.00,0328,Weather View 32 v70,2013-06-06 20:10:00,
2013-06-06 16:15:00,65.9,52.0,30.13,NE,45,0.0,12.0,61,0.00,,,0.00,0328,Weather View 32 v70,2013-06-06 20:15:00,
2013-06-06 16:20:00,65.6,52.1,30.13,East,90,0.0,12.0,62,0.00,,,0.00,0312,Weather View 32 v70,2013-06-06 20:20:00,
2013-06-06 16:25:00,65.7,52.7,30.13,ESE,113,0.0,12.0,63,0.00,,,0.00,0312,Weather View 32 v70,2013-06-06 20:25:00,
2013-06-06 16:30:00,65.6,51.7,30.13,ENE,68,0.0,12.0,61,0.00,,,0.00,0296,Weather View 32 v70,2013-06-06 20:30:00,
2013-06-06 16:35:00,65.3,51.0,30.13,SE,135,1.0,12.0,60,0.00,,,0.00,0272,Weather View 32 v70,2013-06-06 20:35:00,
2013-06-06 16:45:00,65.1,50.8,30.12,NNE,23,0.0,10.0,60,0.00,,,0.00,0264,Weather View 32 v70,2013-06-06 20:45:00,
2013-06-06 16:55:00,65.1,49.9,30.13,South,180,3.0,10.0,58,0.00,,,0.00,0232,Weather View 32 v70,2013-06-06 20:55:00,
2013-06-06 17:00:00,65.1,49.9,30.13,ENE,68,0.0,10.0,58,0.00,,,0.00,0216,Weather View 32 v70,2013-06-06 21:00:00,
2013-06-06 17:05:00,65.0,49.8,30.13,NNE,23,0.0,10.0,58,0.00,,,0.00,0192,Weather View 32 v70,2013-06-06 21:05:00,
2013-06-06 17:15:00,64.5,49.4,30.12,SE,135,0.0,10.0,58,0.00,,,0.00,0160,Weather View 32 v70,2013-06-06 21:15:00,
2013-06-06 17:20:00,64.3,49.2,30.12,SE,135,0.0,10.0,58,0.00,,,0.00,0136,Weather View 32 v70,2013-06-06 21:20:00,
2013-06-06 17:25:00,64.0,48.9,30.12,ENE,68,0.0,10.0,58,0.00,,,0.00,0112,Weather View 32 v70,2013-06-06 21:25:00,
2013-06-06 17:35:00,63.6,49.9,30.12,East,90,0.0,8.0,61,0.00,,,0.00,0104,Weather View 32 v70,2013-06-06 21:35:00,
2013-06-06 17:40:00,63.4,49.7,30.11,East,90,4.0,8.0,61,0.00,,,0.00,0088,Weather View 32 v70,2013-06-06 21:40:00,
2013-06-06 17:50:00,63.0,48.8,30.11,ENE,68,0.0,10.0,60,0.00,,,0.00,0104,Weather View 32 v70,2013-06-06 21:50:00,
2013-06-06 18:00:00,63.0,49.3,30.11,ENE,68,0.0,10.0,61,0.00,,,0.00,0064,Weather View 32 v70,2013-06-06 22:00:00,
2013-06-06 18:05:00,62.7,49.1,30.11,ENE,68,0.0,10.0,61,0.00,,,0.00,0064,Weather View 32 v70,2013-06-06 22:05:00,
2013-06-06 18:15:00,62.6,49.4,30.11,ESE,113,0.0,10.0,62,0.00,,,0.00,0064,Weather View 32 v70,2013-06-06 22:15:00,
2013-06-06 18:20:00,62.4,48.7,30.12,NE,45,0.0,10.0,61,0.00,,,0.00,0048,Weather View 32 v70,2013-06-06 22:20:00,
2013-06-06 18:25:00,62.3,49.1,30.12,ESE,113,0.0,10.0,62,0.00,,,0.00,0048,Weather View 32 v70,2013-06-06 22:25:00,
2013-06-06 18:35:00,62.1,48.4,30.12,ESE,113,0.0,10.0,61,0.00,,,0.00,0048,Weather View 32 v70,2013-06-06 22:35:00,
2013-06-06 18:40:00,62.0,49.2,30.12,ENE,68,0.0,10.0,63,0.00,,,0.00,0056,Weather View 32 v70,2013-06-06 22:40:00,
2013-06-06 18:45:00,61.8,48.6,30.12,East,90,0.0,6.0,62,0.00,,,0.00,0064,Weather View 32 v70,2013-06-06 22:45:00,
2013-06-06 18:55:00,61.5,48.8,30.12,NE,45,0.0,6.0,63,0.00,,,0.00,0032,Weather View 32 v70,2013-06-06 22:55:00,
2013-06-06 19:05:00,61.2,48.9,30.12,NNE,23,0.0,6.0,64,0.00,,,0.00,0016,Weather View 32 v70,2013-06-06 23:05:00,
2013-06-06 19:10:00,60.9,49.1,30.12,ESE,113,0.0,6.0,65,0.00,,,0.00,0008,Weather View 32 v70,2013-06-06 23:10:00,
2013-06-06 19:18:00,60.8,49.0,30.12,East,90,0.0,6.0,65,0.00,,,0.00,0008,Weather View 32 v70,2013-06-06 23:18:00,
2013-06-06 19:25:00,60.8,50.2,30.12,NE,45,0.0,6.0,68,0.00,,,0.00,0016,Weather View 32 v70,2013-06-06 23:25:00,
2013-06-06 19:30:00,60.7,50.5,30.12,NE,45,0.0,6.0,69,0.00,,,0.00,0024,Weather View 32 v70,2013-06-06 23:30:00,
2013-06-06 19:40:00,60.5,50.2,30.12,NE,45,0.0,2.0,69,0.00,,,0.00,0016,Weather View 32 v70,2013-06-06 23:40:00,
2013-06-06 19:50:00,60.0,50.2,30.12,NE,45,0.0,2.0,70,0.00,,,0.00,0000,Weather View 32 v70,2013-06-06 23:50:00,
2013-06-06 19:55:00,59.9,50.1,30.12,NE,45,0.0,2.0,70,0.00,,,0.00,0000,Weather View 32 v70,2013-06-06 23:55:00,
2013-06-06 20:00:00,59.8,50.0,30.12,NE,45,0.0,2.0,70,0.00,,,0.00,0000,Weather View 32 v70,2013-06-07 00:00:00,
2013-06-06 20:05:00,59.8,50.0,30.12,NE,45,0.0,2.0,70,0.00,,,0.00,0000,Weather View 32 v70,2013-06-07 00:05:00,
2013-06-06 20:10:00,59.8,50.4,30.12,NE,45,0.0,2.0,71,0.00,,,0.00,0000,Weather View 32 v70,2013-06-07 00:10:00,
2013-06-06 20:15:00,59.7,50.3,30.12,NE,45,0.0,2.0,71,0.00,,,0.00,0000,Weather View 32 v70,2013-06-07 00:15:00,
2013-06-06 20:25:00,59.6,50.5,30.12,NE,45,0.0,0.0,72,0.00,,,0.00,0016,Weather View 32 v70,2013-06-07 00:25:00,
2013-06-06 20:35:00,59.5,51.2,30.12,NE,45,0.0,0.0,74,0.00,,,0.00,0000,Weather View 32 v70,2013-06-07 00:35:00,
2013-06-06 20:45:00,59.5,51.2,30.12,ENE,68,0.0,1.0,74,0.00,,,0.00,0008,Weather View 32 v70,2013-06-07 00:45:00,
2013-06-06 20:50:00,59.4,51.1,30.12,ENE,68,0.0,3.0,74,0.00,,,0.00,0000,Weather View 32 v70,2013-06-07 00:50:00,
2013-06-06 20:55:00,59.4,51.1,30.12,ENE,68,0.0,3.0,74,0.00,,,0.00,0000,Weather View 32 v70,2013-06-07 00:55:00,
2013-06-06 21:00:00,59.3,51.3,30.11,East,90,0.0,4.0,75,0.00,,,0.00,0000,Weather View 32 v70,2013-06-07 01:00:00,
2013-06-06 21:10:00,59.1,51.2,30.12,NE,45,0.0,4.0,75,0.00,,,0.00,0008,Weather View 32 v70,2013-06-07 01:10:00,
2013-06-06 21:15:00,59.1,51.6,30.11,ESE,113,0.0,4.0,76,0.00,,,0.00,0000,Weather View 32 v70,2013-06-07 01:15:00,
2013-06-06 21:25:00,59.1,51.6,30.11,NNE,23,0.0,4.0,76,0.00,,,0.00,0000,Weather View 32 v70,2013-06-07 01:25:00,
2013-06-06 21:35:00,59.1,51.9,30.11,ENE,68,0.0,5.0,77,0.00,,,0.00,0000,Weather View 32 v70,2013-06-07 01:35:00,
2013-06-06 21:40:00,59.1,51.6,30.11,NE,45,0.0,5.0,76,0.00,,,0.00,0008,Weather View 32 v70,2013-06-07 01:40:00,
2013-06-06 21:50:00,59.0,51.4,30.10,ESE,113,0.0,5.0,76,0.00,,,0.00,0000,Weather View 32 v70,2013-06-07 01:50:00,
2013-06-06 21:55:00,59.0,51.4,30.10,ENE,68,0.0,5.0,76,0.00,,,0.00,0000,Weather View 32 v70,2013-06-07 01:55:00,
2013-06-06 22:00:00,59.0,51.1,30.11,NE,45,0.0,5.0,75,0.00,,,0.00,0000,Weather View 32 v70,2013-06-07 02:00:00,
2013-06-06 22:10:00,59.0,51.4,30.11,ESE,113,1.0,5.0,76,0.00,,,0.00,0000,Weather View 32 v70,2013-06-07 02:10:00,
2013-06-06 22:20:00,58.9,51.3,30.10,NNE,23,0.0,5.0,76,0.00,,,0.00,0008,Weather View 32 v70,2013-06-07 02:20:00,
2013-06-06 22:30:00,58.9,51.3,30.10,NE,45,0.0,4.0,76,0.00,,,0.00,0000,Weather View 32 v70,2013-06-07 02:30:00,
2013-06-06 22:40:00,58.9,51.0,30.10,ENE,68,0.0,5.0,75,0.00,,,0.00,0000,Weather View 32 v70,2013-06-07 02:40:00,
2013-06-06 22:50:00,58.8,50.9,30.09,ESE,113,0.0,5.0,75,0.00,,,0.00,0000,Weather View 32 v70,2013-06-07 02:50:00,
2013-06-06 22:55:00,58.7,51.1,30.09,NE,45,0.0,5.0,76,0.00,,,0.00,0000,Weather View 32 v70,2013-06-07 02:55:00,
2013-06-06 23:00:00,58.7,51.1,30.09,East,90,0.0,6.0,76,0.00,,,0.00,0000,Weather View 32 v70,2013-06-07 03:00:00,
2013-06-06 23:05:00,58.7,51.1,30.09,NNE,23,0.0,6.0,76,0.00,,,0.00,0000,Weather View 32 v70,2013-06-07 03:05:00,
2013-06-06 23:15:00,58.7,51.5,30.09,North,0,0.0,6.0,77,0.00,,,0.00,0000,Weather View 32 v70,2013-06-07 03:15:00,
2013-06-06 23:20:00,58.6,51.4,30.09,North,0,0.0,6.0,77,0.00,,,0.00,0000,Weather View 32 v70,2013-06-07 03:20:00,
2013-06-06 23:30:00,58.5,51.6,30.09,NNE,23,0.0,6.0,78,0.00,,,0.00,0008,Weather View 32 v70,2013-06-07 03:30:00,
2013-06-06 23:40:00,58.2,51.4,30.09,NNE,23,0.0,6.0,78,0.00,,,0.00,0000,Weather View 32 v70,2013-06-07 03:40:00,
2013-06-06 23:45:00,58.2,51.4,30.09,NNE,23,0.0,6.0,78,0.00,,,0.00,0000,Weather View 32 v70,2013-06-07 03:45:00,
2013-06-06 23:55:00,57.9,51.1,30.08,NNE,23,0.0,6.0,78,0.00,,,0.00,0000,Weather View 32 v70,2013-06-07 03:55:00,